Time;durP1;ratioP1;P1;durP2;ratioP2;P2;SDS_P1;SDS_P2;PMS_P1;PMS_P2;Temp;Humidity;BMP_temperature;BMP_pressure;BME280_temperature;BME280_humidity;BME280_pressure;Samples;Min_cycle;Max_cycle;Signal;HPM_P1;HPM_P2
2023/07/26 00:01:32;;;;;;;10.63;1.70;;;22.90;56.70;;;;;;5053172;28;20552;-41
2023/07/26 00:03:58;;;;;;;6.70;1.90;;;22.90;56.80;;;;;;5052844;28;20124;-42
2023/07/26 00:06:25;;;;;;;4.32;1.67;;;22.90;56.80;;;;;;5052939;28;20512;-41
2023/07/26 00:08:52;;;;;;;6.38;2.28;;;22.90;56.90;;;;;;5053000;28;20024;-41
2023/07/26 00:11:18;;;;;;;10.90;1.92;;;22.90;57.20;;;;;;5052943;28;20496;-40
2023/07/26 00:13:44;;;;;;;6.10;2.05;;;22.80;56.80;;;;;;5052731;28;20036;-41
2023/07/26 00:16:10;;;;;;;6.78;2.00;;;22.90;56.80;;;;;;5052841;28;20029;-40
2023/07/26 00:18:39;;;;;;;4.18;1.67;;;22.90;56.80;;;;;;5053241;28;20052;-41
2023/07/26 00:21:06;;;;;;;3.70;1.40;;;22.90;56.70;;;;;;5052710;28;20017;-41
2023/07/26 00:23:32;;;;;;;12.27;1.90;;;22.80;56.70;;;;;;5052405;28;20631;-40
2023/07/26 00:25:57;;;;;;;7.40;2.10;;;22.90;56.80;;;;;;5052790;28;20035;-40
2023/07/26 00:28:23;;;;;;;9.48;1.98;;;22.80;56.80;;;;;;5052704;28;20033;-40
2023/07/26 00:30:50;;;;;;;6.88;1.88;;;22.90;56.90;;;;;;5052620;28;20120;-41
2023/07/26 00:33:17;;;;;;;4.13;1.50;;;22.80;56.80;;;;;;5052320;28;20516;-40
2023/07/26 00:35:43;;;;;;;9.43;1.95;;;22.80;56.70;;;;;;5052340;28;20052;-42
2023/07/26 00:38:10;;;;;;;4.28;1.58;;;22.90;56.80;;;;;;5052418;28;20021;-41
2023/07/26 00:40:36;;;;;;;4.88;1.80;;;22.90;56.70;;;;;;5052368;28;20025;-41
2023/07/26 00:43:03;;;;;;;7.88;2.10;;;22.80;56.70;;;;;;5052358;28;20111;-41
2023/07/26 00:45:30;;;;;;;5.30;1.48;;;22.80;56.80;;;;;;5034176;28;20032;-39
2023/07/26 00:47:57;;;;;;;4.47;1.60;;;22.80;56.70;;;;;;5052365;28;20032;-42
2023/07/26 00:50:23;;;;;;;5.97;2.00;;;22.80;56.80;;;;;;5052176;28;20029;-41
2023/07/26 00:52:49;;;;;;;3.88;1.60;;;22.80;56.70;;;;;;5052179;28;20116;-41
2023/07/26 00:55:15;;;;;;;5.63;1.70;;;22.80;56.60;;;;;;5050901;28;20108;-40
2023/07/26 00:57:42;;;;;;;4.80;1.63;;;22.80;56.80;;;;;;5052158;28;20428;-41
2023/07/26 01:00:09;;;;;;;6.68;1.77;;;22.80;56.60;;;;;;5052058;28;20492;-43
2023/07/26 01:02:35;;;;;;;7.15;2.10;;;22.80;56.80;;;;;;5051957;28;20320;-41
2023/07/26 01:05:02;;;;;;;7.03;2.00;;;22.80;56.90;;;;;;5051684;28;20089;-44
2023/07/26 01:07:49;;;;;;;6.03;1.90;;;22.80;56.90;;;;;;5051858;28;20083;-40
2023/07/26 01:10:23;;;;;;;4.18;1.67;;;22.80;56.80;;;;;;5051851;28;20095;-41
2023/07/26 01:13:07;;;;;;;6.07;1.42;;;22.80;56.80;;;;;;5034080;28;20488;-42
2023/07/26 01:15:37;;;;;;;5.80;2.10;;;22.80;56.70;;;;;;5051410;28;20032;-42
2023/07/26 01:18:14;;;;;;;10.68;2.15;;;22.80;56.70;;;;;;5051972;28;20017;-41
2023/07/26 01:20:40;;;;;;;5.13;1.90;;;22.80;56.80;;;;;;5033951;28;20059;-40
2023/07/26 01:23:06;;;;;;;7.07;1.85;;;22.80;56.80;;;;;;5051655;28;20070;-40
2023/07/26 01:25:33;;;;;;;6.13;1.80;;;22.80;56.70;;;;;;5051208;28;20029;-41
2023/07/26 01:27:59;;;;;;;5.20;1.60;;;22.80;56.80;;;;;;5033684;28;20032;-41
2023/07/26 01:30:29;;;;;;;8.25;2.17;;;22.80;56.90;;;;;;5051582;28;20029;-40
2023/07/26 01:33:00;;;;;;;4.63;1.75;;;22.80;56.70;;;;;;5051746;28;20025;-41
2023/07/26 01:35:27;;;;;;;6.80;2.17;;;22.80;56.70;;;;;;5051139;28;20025;-41
2023/07/26 01:37:54;;;;;;;6.22;2.00;;;22.80;56.70;;;;;;5051510;28;20021;-44
2023/07/26 01:40:21;;;;;;;5.60;1.70;;;22.80;56.80;;;;;;5051532;28;20039;-40
2023/07/26 01:42:48;;;;;;;5.47;1.98;;;22.80;56.80;;;;;;5033741;28;20032;-41
2023/07/26 01:45:14;;;;;;;3.42;1.58;;;22.80;56.60;;;;;;5051051;28;20159;-42
2023/07/26 01:47:40;;;;;;;4.85;1.75;;;22.80;56.60;;;;;;5051392;28;20033;-41
2023/07/26 01:50:07;;;;;;;2.85;1.50;;;22.80;56.60;;;;;;5051423;28;20057;-41
2023/07/26 01:52:33;;;;;;;4.18;1.77;;;22.80;56.60;;;;;;5051369;28;20056;-41
2023/07/26 01:54:59;;;;;;;3.88;1.60;;;22.80;57.20;;;;;;5050946;28;20114;-39
2023/07/26 01:57:26;;;;;;;7.60;2.05;;;22.80;56.50;;;;;;5051179;28;20029;-41
2023/07/26 01:59:52;;;;;;;6.05;1.52;;;22.80;56.50;;;;;;5033650;28;20091;-41
2023/07/26 02:02:18;;;;;;;6.75;1.88;;;22.80;56.60;;;;;;5033602;28;20040;-41
2023/07/26 02:04:44;;;;;;;4.72;1.80;;;22.80;56.70;;;;;;5033179;28;20025;-44
2023/07/26 02:07:10;;;;;;;6.25;1.88;;;22.80;56.60;;;;;;5034936;28;20113;-41
2023/07/26 02:09:36;;;;;;;4.82;1.98;;;22.80;56.60;;;;;;5037412;28;20104;-41
2023/07/26 02:12:03;;;;;;;5.95;1.75;;;22.80;56.50;;;;;;5037465;28;20036;-40
2023/07/26 02:14:29;;;;;;;7.07;1.95;;;22.80;56.70;;;;;;5036985;28;20098;-41
2023/07/26 02:16:55;;;;;;;4.38;1.70;;;22.80;56.60;;;;;;5037328;28;20021;-40
2023/07/26 02:19:21;;;;;;;3.97;1.85;;;22.80;56.70;;;;;;5055167;28;20495;-41
2023/07/26 02:21:47;;;;;;;4.20;1.65;;;22.80;56.60;;;;;;5055184;28;20052;-42
2023/07/26 02:24:13;;;;;;;4.72;1.70;;;22.80;56.60;;;;;;5036942;28;20033;-42
2023/07/26 02:26:40;;;;;;;8.73;1.98;;;22.80;56.60;;;;;;5037105;28;20036;-43
2023/07/26 02:29:08;;;;;;;5.05;1.90;;;22.80;56.50;;;;;;5020592;28;20561;-41
2023/07/26 02:31:34;;;;;;;5.22;1.50;;;22.80;56.50;;;;;;5037058;28;20033;-40
2023/07/26 02:33:59;;;;;;;4.87;2.00;;;22.80;56.60;;;;;;5036730;28;20029;-41
2023/07/26 02:36:25;;;;;;;7.10;1.95;;;22.80;57.20;;;;;;5054723;28;20392;-40
2023/07/26 02:38:51;;;;;;;7.28;2.25;;;22.80;56.70;;;;;;5055212;28;20032;-41
2023/07/26 02:41:17;;;;;;;11.20;2.67;;;22.80;56.70;;;;;;5037044;28;20519;-41
2023/07/26 02:43:43;;;;;;;9.23;1.83;;;22.80;56.70;;;;;;5036675;28;20021;-44
2023/07/26 02:46:09;;;;;;;6.03;1.60;;;22.80;56.70;;;;;;5054565;28;20041;-41
2023/07/26 02:48:35;;;;;;;6.72;1.88;;;22.80;56.80;;;;;;5054591;28;20029;-39
2023/07/26 02:51:01;;;;;;;8.52;2.05;;;22.80;56.70;;;;;;5054891;28;20167;-41
2023/07/26 02:53:27;;;;;;;3.15;1.73;;;22.80;56.70;;;;;;5036316;28;20111;-40
2023/07/26 02:55:53;;;;;;;4.45;2.00;;;22.80;56.80;;;;;;5054176;28;20025;-44
2023/07/26 02:58:19;;;;;;;10.05;2.15;;;22.80;56.80;;;;;;5055096;28;20029;-47
2023/07/26 03:00:46;;;;;;;5.68;1.85;;;22.80;56.80;;;;;;5054353;28;20021;-41
2023/07/26 03:03:11;;;;;;;6.53;2.00;;;22.70;56.90;;;;;;5054261;28;20105;-40
2023/07/26 03:05:38;;;;;;;5.75;1.60;;;22.80;56.80;;;;;;5054503;28;20099;-42
2023/07/26 03:08:04;;;;;;;5.72;2.08;;;22.80;56.90;;;;;;5054413;28;20074;-40
2023/07/26 03:10:31;;;;;;;5.43;1.83;;;22.80;56.80;;;;;;5036585;28;20029;-46
2023/07/26 03:12:57;;;;;;;8.77;2.08;;;22.80;56.90;;;;;;5036269;28;20028;-43
2023/07/26 03:15:23;;;;;;;6.88;2.08;;;22.70;56.90;;;;;;5053702;28;20033;-43
2023/07/26 03:17:49;;;;;;;2.40;1.65;;;22.70;57.50;;;;;;5053787;28;20021;-41
2023/07/26 03:20:14;;;;;;;5.28;2.20;;;22.70;57.00;;;;;;5053352;28;20029;-44
2023/07/26 03:22:40;;;;;;;6.90;1.80;;;22.80;56.90;;;;;;5036254;28;20033;-46
2023/07/26 03:25:07;;;;;;;8.30;2.08;;;22.70;56.90;;;;;;5053567;28;20029;-45
2023/07/26 03:27:32;;;;;;;7.72;1.98;;;22.80;57.00;;;;;;5036019;28;20029;-47
2023/07/26 03:29:58;;;;;;;4.70;1.92;;;22.80;56.90;;;;;;5053704;28;20036;-44
2023/07/26 03:32:24;;;;;;;5.93;1.88;;;22.70;57.00;;;;;;5035926;28;20044;-47
2023/07/26 03:34:50;;;;;;;7.47;2.08;;;22.80;57.00;;;;;;5035525;28;20111;-43
2023/07/26 03:37:15;;;;;;;5.47;2.30;;;22.70;56.90;;;;;;5053527;28;20393;-46
2023/07/26 03:39:41;;;;;;;4.57;2.25;;;22.70;57.00;;;;;;5053626;28;20021;-44
2023/07/26 03:42:07;;;;;;;9.25;2.17;;;22.70;56.90;;;;;;5053657;28;20025;-47
2023/07/26 03:44:33;;;;;;;6.82;1.92;;;22.70;57.00;;;;;;5053383;28;20032;-44
2023/07/26 03:46:59;;;;;;;5.55;2.00;;;22.70;57.00;;;;;;5053439;28;20358;-46
2023/07/26 03:49:25;;;;;;;8.45;2.40;;;22.70;57.00;;;;;;5053348;28;20033;-44
2023/07/26 03:51:51;;;;;;;6.55;2.15;;;22.70;56.90;;;;;;5053317;28;20553;-47
2023/07/26 03:54:16;;;;;;;6.68;2.13;;;22.70;56.90;;;;;;5053239;28;20511;-43
2023/07/26 03:56:42;;;;;;;4.75;2.05;;;22.70;57.00;;;;;;5076144;22;20136;-48
2023/07/26 03:59:08;;;;;;;5.90;2.25;;;22.70;57.00;;;;;;5027143;28;20031;-46
2023/07/26 04:01:34;;;;;;;6.97;2.13;;;22.70;57.00;;;;;;5052034;28;20040;-50
2023/07/26 04:04:00;;;;;;;9.15;2.40;;;22.80;57.20;;;;;;5052936;28;20025;-49
2023/07/26 04:06:25;;;;;;;8.95;2.20;;;22.70;57.30;;;;;;5051880;28;20100;-47
2023/07/26 04:08:51;;;;;;;14.43;2.40;;;22.70;56.00;;;;;;5051935;28;20025;-47
2023/07/26 04:11:17;;;;;;;7.68;1.88;;;22.60;54.20;;;;;;5053008;28;20082;-48
2023/07/26 04:13:43;;;;;;;7.40;2.40;;;22.50;54.20;;;;;;5052759;28;20503;-47
2023/07/26 04:16:19;;;;;;;10.73;2.25;;;22.40;53.10;;;;;;5052829;28;20116;-51
2023/07/26 04:18:46;;;;;;;8.80;2.10;;;22.40;53.10;;;;;;5052940;28;20524;-47
2023/07/26 04:21:17;;;;;;;8.93;2.20;;;22.20;52.60;;;;;;5052793;28;20025;-48
2023/07/26 04:23:43;;;;;;;8.15;2.08;;;22.20;52.50;;;;;;5052707;28;20059;-51
2023/07/26 04:26:09;;;;;;;8.40;1.88;;;22.20;52.20;;;;;;5052696;28;20518;-50
2023/07/26 04:28:36;;;;;;;11.60;2.20;;;22.20;52.50;;;;;;5052669;28;20029;-46
2023/07/26 04:31:02;;;;;;;8.85;2.00;;;22.10;52.10;;;;;;5052722;28;20021;-48
2023/07/26 04:33:29;;;;;;;7.82;2.30;;;22.10;51.90;;;;;;5052491;28;20100;-47
2023/07/26 04:35:57;;;;;;;7.93;2.10;;;22.10;52.00;;;;;;5052396;28;20033;-49
2023/07/26 04:38:24;;;;;;;8.60;2.17;;;22.00;52.00;;;;;;5052527;28;20029;-46
2023/07/26 04:40:50;;;;;;;6.85;2.30;;;22.00;52.00;;;;;;5052548;28;20111;-47
2023/07/26 04:43:16;;;;;;;10.07;2.40;;;22.00;52.00;;;;;;5052168;28;20111;-48
2023/07/26 04:45:50;;;;;;;9.93;2.17;;;22.00;51.80;;;;;;5052208;28;20052;-47
2023/07/26 04:48:16;;;;;;;11.13;2.53;;;22.00;52.00;;;;;;5052540;28;20427;-47
2023/07/26 04:50:43;;;;;;;10.50;2.50;;;22.00;51.80;;;;;;5052409;28;20025;-49
2023/07/26 04:53:09;;;;;;;12.00;2.30;;;22.00;52.00;;;;;;5052284;28;20064;-46
2023/07/26 04:55:46;;;;;;;12.70;2.53;;;22.00;51.90;;;;;;5051741;28;20029;-45
2023/07/26 04:58:12;;;;;;;8.80;2.38;;;21.90;51.90;;;;;;5052168;28;20024;-46
2023/07/26 05:00:39;;;;;;;10.85;2.28;;;21.90;51.80;;;;;;5052157;28;20028;-46
2023/07/26 05:03:05;;;;;;;8.88;1.95;;;21.90;52.00;;;;;;5051997;28;20163;-47
2023/07/26 05:05:32;;;;;;;7.60;2.03;;;21.90;51.90;;;;;;5051643;28;20037;-46
2023/07/26 05:07:58;;;;;;;10.43;2.40;;;21.90;52.00;;;;;;5052030;28;20123;-46
2023/07/26 05:10:25;;;;;;;4.60;1.70;;;21.90;52.10;;;;;;5051924;28;20104;-46
2023/07/26 05:12:52;;;;;;;7.32;1.90;;;21.80;52.10;;;;;;5051850;28;20028;-47
2023/07/26 05:15:18;;;;;;;6.15;1.90;;;21.90;52.10;;;;;;5051656;28;20029;-46
2023/07/26 05:17:44;;;;;;;7.82;2.10;;;21.80;52.00;;;;;;5051757;28;20488;-46
2023/07/26 05:20:11;;;;;;;7.00;2.20;;;21.80;52.00;;;;;;5051770;28;20539;-46
2023/07/26 05:22:37;;;;;;;9.38;3.00;;;21.80;52.10;;;;;;5051744;28;20029;-46
2023/07/26 05:25:03;;;;;;;7.55;2.72;;;21.80;52.20;;;;;;5051407;28;20036;-48
2023/07/26 05:27:29;;;;;;;9.77;3.55;;;21.80;52.20;;;;;;5051620;28;20032;-48
2023/07/26 05:29:57;;;;;;;9.40;3.30;;;21.80;52.90;;;;;;5051761;28;20029;-47
2023/07/26 05:32:26;;;;;;;8.88;3.35;;;21.80;57.30;;;;;;5051642;28;20032;-47
2023/07/26 05:34:54;;;;;;;12.75;2.60;;;21.80;58.50;;;;;;5051360;28;20120;-47
2023/07/26 05:37:21;;;;;;;8.90;2.30;;;21.80;58.30;;;;;;5051504;28;20048;-46
2023/07/26 05:39:48;;;;;;;12.93;2.58;;;21.80;53.80;;;;;;5051450;28;20029;-47
2023/07/26 05:42:14;;;;;;;7.47;2.13;;;21.80;53.00;;;;;;5051110;28;20522;-46
2023/07/26 05:44:40;;;;;;;9.20;2.47;;;21.80;52.60;;;;;;5051221;28;20029;-46
2023/07/26 05:47:06;;;;;;;9.07;1.98;;;21.80;52.80;;;;;;5051390;28;20029;-51
2023/07/26 05:49:32;;;;;;;6.43;2.00;;;21.80;53.20;;;;;;5051468;28;20115;-51
2023/07/26 05:51:59;;;;;;;9.55;2.20;;;21.80;54.10;;;;;;5051405;28;20032;-53
2023/07/26 05:54:25;;;;;;;10.10;2.20;;;21.80;59.50;;;;;;5051074;28;20078;-51
2023/07/26 05:56:51;;;;;;;7.55;1.90;;;21.80;58.70;;;;;;5051334;28;20446;-53
2023/07/26 05:59:17;;;;;;;11.95;2.13;;;21.80;58.10;;;;;;5051411;28;20068;-53
2023/07/26 06:01:42;;;;;;;11.00;1.98;;;21.80;58.30;;;;;;5051329;28;20368;-52
2023/07/26 06:04:08;;;;;;;8.73;2.10;;;21.80;58.10;;;;;;5050971;28;20025;-52
2023/07/26 06:06:34;;;;;;;8.50;2.13;;;21.80;56.00;;;;;;5050681;28;20481;-51
2023/07/26 06:09:00;;;;;;;7.07;2.13;;;21.80;56.70;;;;;;5051285;28;20067;-53
2023/07/26 06:11:26;;;;;;;8.68;2.08;;;21.80;55.90;;;;;;5051108;28;20022;-53
2023/07/26 06:13:53;;;;;;;6.47;2.03;;;21.70;55.50;;;;;;5050886;28;20099;-50
2023/07/26 06:16:22;;;;;;;7.63;1.85;;;21.70;53.10;;;;;;5051203;28;20029;-51
2023/07/26 06:18:49;;;;;;;10.38;2.53;;;21.70;53.00;;;;;;5051204;28;20029;-53
2023/07/26 06:21:15;;;;;;;7.03;1.83;;;21.60;53.00;;;;;;5051189;28;20526;-53
2023/07/26 06:23:41;;;;;;;14.23;2.30;;;21.60;53.10;;;;;;5032985;28;20029;-52
2023/07/26 06:26:07;;;;;;;8.82;2.13;;;21.70;53.20;;;;;;5050945;28;20116;-52
2023/07/26 06:28:32;;;;;;;8.45;1.85;;;21.70;53.20;;;;;;5051042;28;20116;-53
2023/07/26 06:30:58;;;;;;;5.70;1.80;;;21.70;53.20;;;;;;5051088;28;20033;-48
2023/07/26 06:33:24;;;;;;;8.80;1.85;;;21.70;53.30;;;;;;5050662;28;20066;-53
2023/07/26 06:35:54;;;;;;;5.35;2.10;;;21.70;53.30;;;;;;5051014;28;20483;-50
2023/07/26 06:38:19;;;;;;;6.03;2.03;;;21.70;53.20;;;;;;5051565;28;20027;-50
2023/07/26 06:40:45;;;;;;;9.25;2.00;;;21.70;53.20;;;;;;5050876;28;20037;-47
2023/07/26 06:43:11;;;;;;;6.95;2.10;;;21.70;53.20;;;;;;5050879;28;20025;-49
2023/07/26 06:45:37;;;;;;;9.90;2.38;;;21.70;53.20;;;;;;5050710;28;20404;-50
2023/07/26 06:48:03;;;;;;;5.80;1.75;;;21.80;53.30;;;;;;5050795;28;20408;-50
2023/07/26 06:50:29;;;;;;;8.25;2.03;;;21.80;53.90;;;;;;5050819;28;20029;-45
2023/07/26 06:52:54;;;;;;;6.30;1.95;;;21.80;53.30;;;;;;5050781;28;20069;-49
2023/07/26 06:55:20;;;;;;;6.97;2.17;;;21.80;53.50;;;;;;5053701;28;20033;-49
2023/07/26 06:57:46;;;;;;;7.00;2.05;;;21.80;53.60;;;;;;5054383;28;20039;-53
2023/07/26 07:00:14;;;;;;;9.35;2.05;;;21.80;53.60;;;;;;5053999;28;20017;-46
2023/07/26 07:02:40;;;;;;;7.63;1.90;;;21.90;53.50;;;;;;5053754;28;20035;-48
2023/07/26 07:05:07;;;;;;;10.63;2.42;;;21.90;53.50;;;;;;5053527;28;20017;-46
2023/07/26 07:07:33;;;;;;;9.02;1.75;;;21.90;53.40;;;;;;5053599;28;20443;-50
2023/07/26 07:09:59;;;;;;;3.45;1.55;;;21.90;53.30;;;;;;5053675;28;20021;-50
2023/07/26 07:12:25;;;;;;;7.20;1.60;;;21.90;53.20;;;;;;5053730;28;20021;-48
2023/07/26 07:14:50;;;;;;;7.05;1.90;;;21.90;53.20;;;;;;5053709;28;20111;-47
2023/07/26 07:17:16;;;;;;;9.30;2.53;;;21.90;53.10;;;;;;5054056;28;20025;-49
2023/07/26 07:19:45;;;;;;;6.82;1.95;;;21.90;53.10;;;;;;5054068;28;20493;-50
2023/07/26 07:22:11;;;;;;;4.03;1.80;;;21.90;53.10;;;;;;5041110;28;20040;-48
2023/07/26 07:24:38;;;;;;;7.13;1.88;;;22.00;53.40;;;;;;5033461;28;20029;-50
2023/07/26 07:27:04;;;;;;;12.23;2.40;;;22.00;53.50;;;;;;5048185;28;20064;-46
2023/07/26 07:29:32;;;;;;;8.27;2.00;;;22.10;54.00;;;;;;5048701;28;20467;-51
2023/07/26 07:31:58;;;;;;;8.48;2.40;;;22.20;54.00;;;;;;5047143;28;20116;-47
2023/07/26 07:34:24;;;;;;;6.25;2.38;;;22.20;53.30;;;;;;5049418;28;20111;-47
2023/07/26 07:36:50;;;;;;;4.05;2.10;;;22.20;54.20;;;;;;5015246;28;20435;-47
2023/07/26 07:39:16;;;;;;;6.43;1.88;;;22.20;54.20;;;;;;5050423;28;20091;-52
2023/07/26 07:41:42;;;;;;;6.40;2.20;;;22.20;54.40;;;;;;5050127;28;20036;-47
2023/07/26 07:44:08;;;;;;;8.38;2.15;;;22.30;54.60;;;;;;5050650;28;20546;-47
2023/07/26 07:46:34;;;;;;;8.13;2.20;;;22.30;54.20;;;;;;5036936;28;20040;-47
2023/07/26 07:49:00;;;;;;;20.05;2.88;;;22.20;54.00;;;;;;5032498;28;20025;-48
2023/07/26 07:51:26;;;;;;;15.20;2.85;;;22.30;54.90;;;;;;5049782;28;20024;-48
2023/07/26 07:53:51;;;;;;;22.23;3.00;;;22.30;54.80;;;;;;5050178;28;20025;-46
2023/07/26 07:56:17;;;;;;;11.55;2.40;;;22.30;54.60;;;;;;5050591;28;20061;-48
2023/07/26 07:58:43;;;;;;;12.68;2.53;;;22.40;56.10;;;;;;5025453;28;20600;-51
2023/07/26 08:01:09;;;;;;;9.98;2.53;;;22.30;55.00;;;;;;5043719;28;20409;-48
2023/07/26 08:03:35;;;;;;;20.50;2.88;;;22.40;54.80;;;;;;5046161;28;20033;-48
2023/07/26 08:06:00;;;;;;;13.80;2.80;;;22.40;55.60;;;;;;5044908;28;20110;-47
2023/07/26 08:08:26;;;;;;;18.42;2.30;;;22.40;55.30;;;;;;5028537;28;20078;-48
2023/07/26 08:10:52;;;;;;;18.75;3.03;;;22.40;55.30;;;;;;5048409;28;20033;-46
2023/07/26 08:13:18;;;;;;;17.98;2.85;;;22.40;55.90;;;;;;5047333;28;21169;-49
2023/07/26 08:15:44;;;;;;;8.02;2.50;;;22.40;55.50;;;;;;5014500;28;20531;-48
2023/07/26 08:18:09;;;;;;;11.95;2.50;;;22.40;55.50;;;;;;5046250;28;20033;-46
2023/07/26 08:20:36;;;;;;;11.02;2.60;;;22.40;55.60;;;;;;5042858;28;20068;-50
2023/07/26 08:23:05;;;;;;;15.48;2.78;;;22.50;55.70;;;;;;5037447;28;20048;-48
2023/07/26 08:25:31;;;;;;;12.13;2.40;;;22.50;55.70;;;;;;5043197;28;20028;-46
2023/07/26 08:27:56;;;;;;;11.40;2.58;;;22.50;55.60;;;;;;5046656;28;20047;-47
2023/07/26 08:30:22;;;;;;;13.05;3.03;;;22.50;55.60;;;;;;5047961;28;20400;-51
2023/07/26 08:32:48;;;;;;;13.05;2.45;;;22.50;55.60;;;;;;5047556;28;20115;-46
2023/07/26 08:35:14;;;;;;;13.27;2.83;;;22.50;55.70;;;;;;5047563;28;20444;-46
2023/07/26 08:37:40;;;;;;;19.27;3.08;;;22.60;55.60;;;;;;5046916;28;20060;-46
2023/07/26 08:40:06;;;;;;;16.25;2.97;;;22.60;55.70;;;;;;5048243;28;20032;-48
2023/07/26 08:42:32;;;;;;;11.73;2.35;;;22.60;55.70;;;;;;5049574;28;20407;-45
2023/07/26 08:45:00;;;;;;;13.18;2.55;;;22.60;55.60;;;;;;5049395;28;20033;-45
2023/07/26 08:47:27;;;;;;;9.82;3.00;;;22.60;55.80;;;;;;5049813;28;20374;-46
2023/07/26 08:49:54;;;;;;;12.52;2.58;;;22.60;55.80;;;;;;5049820;28;20036;-46
2023/07/26 08:52:21;;;;;;;8.80;2.55;;;22.60;55.80;;;;;;5049879;28;20047;-46
2023/07/26 08:54:47;;;;;;;18.40;2.45;;;22.60;55.80;;;;;;5049552;28;20029;-50
2023/07/26 08:57:16;;;;;;;17.35;2.60;;;22.60;56.00;;;;;;5049324;28;20484;-52
2023/07/26 08:59:42;;;;;;;11.48;2.58;;;22.60;56.00;;;;;;5049703;28;20031;-52
2023/07/26 09:02:10;;;;;;;8.57;2.50;;;22.60;55.80;;;;;;5049371;28;20040;-51
2023/07/26 09:04:36;;;;;;;11.35;2.40;;;22.60;55.60;;;;;;5049169;28;20171;-51
2023/07/26 09:07:06;;;;;;;12.23;2.22;;;22.60;55.10;;;;;;5049219;28;20036;-48
2023/07/26 09:09:33;;;;;;;7.03;2.55;;;22.60;54.90;;;;;;5049642;28;20064;-47
2023/07/26 09:12:00;;;;;;;8.30;2.25;;;22.60;55.00;;;;;;5049326;28;20056;-49
2023/07/26 09:14:31;;;;;;;6.82;1.73;;;22.60;54.80;;;;;;5049358;28;20032;-45
2023/07/26 09:16:58;;;;;;;9.15;2.10;;;22.50;54.40;;;;;;5048461;28;20053;-51
2023/07/26 09:19:35;;;;;;;6.72;1.98;;;22.50;54.40;;;;;;5049338;28;20021;-46
2023/07/26 09:22:07;;;;;;;7.00;1.98;;;22.60;53.90;;;;;;5048739;28;20028;-46
2023/07/26 09:24:35;;;;;;;8.10;1.95;;;22.60;53.40;;;;;;5033327;28;20033;-46
2023/07/26 09:27:06;;;;;;;4.05;1.90;;;22.60;53.40;;;;;;5049095;28;20045;-46
2023/07/26 09:29:33;;;;;;;9.13;1.80;;;22.60;53.30;;;;;;5033394;28;20035;-48
2023/07/26 09:31:59;;;;;;;5.50;2.13;;;22.60;53.30;;;;;;5048867;28;20029;-47
2023/07/26 09:34:26;;;;;;;9.57;2.13;;;22.60;53.50;;;;;;5048767;28;20025;-52
2023/07/26 09:36:53;;;;;;;7.50;2.55;;;22.50;53.10;;;;;;5048876;28;20112;-49
2023/07/26 09:39:25;;;;;;;11.75;2.30;;;22.60;53.70;;;;;;5048952;28;20067;-46
2023/07/26 09:42:10;;;;;;;8.20;2.33;;;22.60;53.90;;;;;;5048640;28;20032;-52
2023/07/26 09:44:37;;;;;;;10.32;2.10;;;22.60;53.70;;;;;;5047359;28;20536;-47
2023/07/26 09:47:05;;;;;;;8.98;2.10;;;22.60;53.40;;;;;;5048571;28;20132;-47
2023/07/26 09:49:31;;;;;;;5.50;1.80;;;22.60;53.40;;;;;;5049135;28;20075;-46
2023/07/26 09:51:59;;;;;;;4.13;1.98;;;22.60;53.40;;;;;;5048736;28;20044;-50
2023/07/26 09:54:33;;;;;;;7.30;2.20;;;22.60;53.50;;;;;;5048302;28;20416;-52
2023/07/26 09:57:00;;;;;;;7.65;2.33;;;22.60;53.60;;;;;;5048500;28;20029;-52
2023/07/26 09:59:28;;;;;;;6.10;2.28;;;22.60;53.60;;;;;;5048665;28;20260;-53
2023/07/26 10:01:55;;;;;;;5.85;2.00;;;22.60;53.80;;;;;;5048830;28;20025;-48
2023/07/26 10:04:53;;;;;;;5.95;2.20;;;22.60;54.00;;;;;;5030826;28;20075;-49
2023/07/26 10:07:20;;;;;;;8.75;2.15;;;22.60;53.90;;;;;;5048740;28;20021;-51
2023/07/26 10:09:50;;;;;;;5.22;2.20;;;22.60;54.00;;;;;;5048784;28;20060;-51
2023/07/26 10:12:18;;;;;;;5.70;2.13;;;22.60;54.20;;;;;;5048544;28;20033;-50
2023/07/26 10:14:43;;;;;;;5.53;2.35;;;22.60;54.20;;;;;;5048463;28;20420;-47
2023/07/26 10:17:12;;;;;;;7.28;2.30;;;22.50;54.20;;;;;;5048066;28;20021;-46
2023/07/26 10:19:40;;;;;;;6.47;2.40;;;22.60;54.70;;;;;;5048660;28;20108;-52
2023/07/26 10:22:07;;;;;;;14.40;2.65;;;22.60;54.70;;;;;;5048351;28;20053;-50
2023/07/26 10:24:35;;;;;;;10.15;2.92;;;22.60;55.60;;;;;;5045741;28;20339;-48
2023/07/26 10:27:02;;;;;;;10.32;2.35;;;22.60;55.70;;;;;;5028956;28;20063;-50
2023/07/26 10:29:28;;;;;;;8.15;2.30;;;22.50;55.40;;;;;;5035227;28;20047;-50
2023/07/26 10:32:07;;;;;;;7.75;2.63;;;22.50;55.40;;;;;;5050861;28;20107;-48
2023/07/26 10:34:33;;;;;;;9.85;2.30;;;22.60;55.50;;;;;;5036525;28;20037;-50
2023/07/26 10:37:12;;;;;;;9.57;2.25;;;22.50;55.40;;;;;;5052152;28;20389;-48
2023/07/26 10:39:38;;;;;;;6.78;2.53;;;22.50;55.40;;;;;;5051648;28;20029;-53
2023/07/26 10:42:05;;;;;;;20.25;3.10;;;22.60;55.50;;;;;;5051928;28;20397;-51
2023/07/26 10:44:40;;;;;;;7.97;2.83;;;22.60;55.80;;;;;;5051780;28;20029;-49
2023/07/26 10:47:06;;;;;;;16.13;3.67;;;22.60;55.80;;;;;;5052094;28;20602;-46
2023/07/26 10:49:33;;;;;;;10.20;3.70;;;22.60;56.80;;;;;;5052257;28;20052;-46
2023/07/26 10:52:02;;;;;;;12.32;3.28;;;22.60;56.80;;;;;;5051985;28;20032;-45
2023/07/26 10:54:42;;;;;;;8.77;2.92;;;22.60;56.00;;;;;;5035470;28;20070;-46
2023/07/26 10:57:28;;;;;;;11.98;3.38;;;22.60;55.80;;;;;;5051305;28;20084;-46
2023/07/26 10:59:59;;;;;;;10.07;3.20;;;22.50;55.60;;;;;;5051833;28;20028;-47
2023/07/26 11:02:35;;;;;;;9.20;2.70;;;22.50;55.40;;;;;;5051707;28;20017;-48
2023/07/26 11:05:09;;;;;;;11.50;2.70;;;22.50;55.30;;;;;;5051347;28;20049;-48
2023/07/26 11:07:55;;;;;;;18.38;8.40;;;22.50;55.20;;;;;;5038750;28;20029;-53
2023/07/26 11:10:28;;;;;;;117.95;98.88;;;22.60;55.00;;;;;;5051738;28;20127;-50
2023/07/26 11:13:15;;;;;;;115.18;82.55;;;22.60;55.50;;;;;;5051612;28;20033;-49
2023/07/26 11:15:43;;;;;;;224.60;152.20;;;22.60;54.80;;;;;;5037198;28;20028;-48
2023/07/26 11:18:10;;;;;;;199.50;151.48;;;22.60;55.30;;;;;;5051470;28;20061;-48
2023/07/26 11:20:38;;;;;;;152.23;97.53;;;22.70;55.10;;;;;;5051628;28;20021;-47
2023/07/26 11:23:15;;;;;;;90.88;63.88;;;22.70;54.80;;;;;;5051214;28;20036;-48
2023/07/26 11:25:42;;;;;;;122.32;79.18;;;22.70;54.80;;;;;;5051273;28;20115;-46
2023/07/26 11:28:07;;;;;;;90.60;65.65;;;22.70;54.80;;;;;;5051139;28;20029;-47
2023/07/26 11:30:37;;;;;;;80.97;55.83;;;22.70;54.70;;;;;;5033704;28;20045;-46
2023/07/26 11:33:03;;;;;;;96.68;64.80;;;22.70;54.80;;;;;;5051052;28;20095;-46
2023/07/26 11:35:38;;;;;;;67.43;44.45;;;22.60;54.60;;;;;;5032821;28;20057;-46
2023/07/26 11:38:04;;;;;;;61.13;35.35;;;22.60;54.30;;;;;;5050833;28;20059;-49
2023/07/26 11:40:30;;;;;;;40.90;26.02;;;22.60;54.40;;;;;;5050277;28;20020;-50
2023/07/26 11:42:57;;;;;;;36.80;20.77;;;22.60;54.20;;;;;;5051040;28;20033;-46
2023/07/26 11:45:22;;;;;;;33.28;20.08;;;22.60;54.10;;;;;;5050731;28;20020;-53
2023/07/26 11:47:50;;;;;;;30.33;18.17;;;22.50;53.60;;;;;;5050889;28;20032;-50
2023/07/26 11:50:19;;;;;;;25.55;14.68;;;22.50;53.40;;;;;;5050993;28;20400;-45
2023/07/26 11:53:00;;;;;;;21.23;11.98;;;22.60;53.10;;;;;;5050843;28;20497;-46
2023/07/26 11:55:26;;;;;;;22.83;10.90;;;22.60;52.80;;;;;;5050453;28;20595;-46
2023/07/26 11:57:52;;;;;;;20.45;10.77;;;22.60;53.00;;;;;;5050756;28;20033;-47
2023/07/26 12:00:18;;;;;;;18.70;10.60;;;22.60;52.70;;;;;;5050649;28;20556;-46
2023/07/26 12:02:44;;;;;;;19.60;10.88;;;22.60;52.70;;;;;;5050793;28;20029;-47
2023/07/26 12:05:18;;;;;;;20.15;10.35;;;22.60;52.90;;;;;;5050296;28;20035;-52
2023/07/26 12:07:49;;;;;;;19.63;10.95;;;22.60;53.30;;;;;;5050350;28;20104;-48
2023/07/26 12:10:17;;;;;;;22.33;11.63;;;22.60;53.30;;;;;;5050489;28;20466;-48
2023/07/26 12:12:43;;;;;;;26.60;11.20;;;22.60;53.60;;;;;;5050419;28;20064;-47
2023/07/26 12:15:10;;;;;;;22.00;11.35;;;22.60;53.60;;;;;;5050107;28;20037;-47
2023/07/26 12:17:52;;;;;;;22.13;11.23;;;22.60;53.80;;;;;;5050237;28;20033;-49
2023/07/26 12:20:18;;;;;;;26.88;11.75;;;22.60;54.10;;;;;;5050263;28;20021;-46
2023/07/26 12:22:54;;;;;;;21.80;11.43;;;22.60;54.50;;;;;;5050230;28;20025;-46
2023/07/26 12:25:31;;;;;;;18.95;10.18;;;22.70;54.20;;;;;;5049768;28;20052;-46
2023/07/26 12:27:57;;;;;;;21.30;10.60;;;22.70;54.50;;;;;;5050095;28;20025;-48
2023/07/26 12:30:25;;;;;;;23.92;11.07;;;22.70;54.50;;;;;;5050108;28;20106;-49
2023/07/26 12:33:14;;;;;;;21.90;10.70;;;22.70;54.50;;;;;;5049782;28;20436;-52
2023/07/26 12:35:46;;;;;;;21.90;11.20;;;22.70;54.70;;;;;;5035432;28;20693;-51
2023/07/26 12:38:14;;;;;;;23.15;10.85;;;22.70;54.70;;;;;;5031960;28;20025;-49
2023/07/26 12:40:40;;;;;;;23.63;11.23;;;22.70;54.60;;;;;;5049960;28;20036;-46
2023/07/26 12:43:26;;;;;;;24.00;10.55;;;22.70;54.60;;;;;;5031867;28;20111;-47
2023/07/26 12:45:54;;;;;;;23.15;10.43;;;22.70;54.60;;;;;;5049928;28;20032;-48